createdAt,value
2023-03-02T00:00:35.864Z,2.95
2023-03-02T00:01:41.917Z,2.91
2023-03-02T00:02:43.959Z,2.82
2023-03-02T00:03:45.786Z,2.88
2023-03-02T00:04:50.344Z,2.91
2023-03-02T00:05:52.049Z,2.95
2023-03-02T00:06:56.641Z,2.92
2023-03-02T00:07:58.593Z,2.93
2023-03-02T00:09:00.817Z,2.93
2023-03-02T00:10:02.557Z,2.91
2023-03-02T00:11:04.285Z,2.93
2023-03-02T00:12:06.527Z,2.95
2023-03-02T00:13:08.097Z,2.96
2023-03-02T00:14:09.695Z,2.91
2023-03-02T00:15:11.452Z,2.89
2023-03-02T00:16:13.113Z,2.92
2023-03-02T00:17:14.759Z,2.91
2023-03-02T00:18:16.379Z,2.92
2023-03-02T00:19:18.030Z,2.93
2023-03-02T00:20:19.694Z,2.89
2023-03-02T00:21:21.291Z,2.79
2023-03-02T00:22:22.968Z,2.78
2023-03-02T00:23:24.711Z,2.74
2023-03-02T00:24:26.316Z,2.71
2023-03-02T00:25:28.892Z,2.72
2023-03-02T00:26:35.858Z,2.77
2023-03-02T00:27:37.519Z,2.79
2023-03-02T00:28:39.106Z,2.81
2023-03-02T00:29:40.939Z,2.88
2023-03-02T00:30:42.583Z,2.89
2023-03-02T00:31:44.310Z,2.78
2023-03-02T00:32:46.027Z,2.69
2023-03-02T00:33:47.621Z,2.62
2023-03-02T00:34:49.220Z,2.66
2023-03-02T00:35:50.914Z,2.72
2023-03-02T00:36:52.863Z,2.79
2023-03-02T00:37:54.524Z,2.81
2023-03-02T00:38:57.454Z,2.75
2023-03-02T00:39:59.038Z,2.78
2023-03-02T00:41:00.642Z,2.68
2023-03-02T00:42:02.361Z,2.68
2023-03-02T00:43:04.191Z,2.66
2023-03-02T00:44:05.841Z,2.65
2023-03-02T00:45:07.993Z,2.71
2023-03-02T00:46:13.765Z,2.78
2023-03-02T00:47:15.993Z,2.78
2023-03-02T00:48:17.595Z,2.75
2023-03-02T00:49:19.166Z,2.75
2023-03-02T00:50:20.780Z,2.65
2023-03-02T00:51:22.457Z,2.66
2023-03-02T00:52:25.387Z,2.59
2023-03-02T00:53:27.005Z,2.55
2023-03-02T00:54:28.654Z,2.51
2023-03-02T00:55:30.260Z,2.47
2023-03-02T00:56:33.905Z,2.45
2023-03-02T00:57:35.735Z,2.48
2023-03-02T00:58:37.614Z,2.48
2023-03-02T00:59:39.529Z,2.55
2023-03-02T01:00:41.137Z,2.55
2023-03-02T01:01:42.734Z,2.57
2023-03-02T01:02:44.805Z,2.65
2023-03-02T01:03:46.504Z,2.66
2023-03-02T01:04:48.355Z,2.81
2023-03-02T01:05:50.153Z,2.85
2023-03-02T01:06:51.757Z,2.95
2023-03-02T01:07:53.591Z,2.95
2023-03-02T01:08:55.439Z,2.93
2023-03-02T01:09:57.038Z,2.88
2023-03-02T01:11:01.411Z,2.85
2023-03-02T01:12:03.199Z,2.68
2023-03-02T01:13:05.924Z,2.82
2023-03-02T01:14:07.565Z,2.84
2023-03-02T01:15:09.929Z,2.82
2023-03-02T01:16:12.072Z,2.82
2023-03-02T01:17:14.115Z,2.85
2023-03-02T01:18:15.706Z,2.77
2023-03-02T01:19:17.459Z,2.52
2023-03-02T01:20:19.121Z,2.71
2023-03-02T01:21:20.808Z,2.87
2023-03-02T01:22:22.831Z,2.74
2023-03-02T01:23:24.459Z,2.77
2023-03-02T01:24:26.167Z,2.74
2023-03-02T01:25:27.745Z,2.81
2023-03-02T01:26:29.646Z,2.71
2023-03-02T01:27:31.333Z,2.85
2023-03-02T01:28:32.961Z,2.91
2023-03-02T01:29:34.562Z,3.01
2023-03-02T01:30:36.223Z,3.01
2023-03-02T01:31:37.947Z,3.12
2023-03-02T01:32:39.681Z,3.12
2023-03-02T01:33:41.309Z,3.16
2023-03-02T01:34:42.995Z,3.11
2023-03-02T01:35:46.250Z,3.20
2023-03-02T01:36:47.914Z,3.27
2023-03-02T01:37:49.480Z,3.29
2023-03-02T01:38:51.185Z,3.33
2023-03-02T01:39:52.829Z,3.39
2023-03-02T01:40:54.410Z,3.44
2023-03-02T01:41:56.080Z,3.47
2023-03-02T01:42:58.679Z,3.53
2023-03-02T01:44:00.240Z,3.50
2023-03-02T01:45:02.103Z,3.52
2023-03-02T01:46:06.650Z,3.50
2023-03-02T01:47:14.002Z,3.50
2023-03-02T01:48:16.309Z,3.50
2023-03-02T01:49:17.913Z,3.49
2023-03-02T01:50:25.014Z,3.47
2023-03-02T01:51:27.698Z,3.49
2023-03-02T01:52:29.565Z,3.46
2023-03-02T01:53:32.233Z,3.44
2023-03-02T01:54:33.827Z,3.42
2023-03-02T01:55:35.472Z,3.33
2023-03-02T01:56:39.211Z,3.30
2023-03-02T01:57:43.882Z,3.32
2023-03-02T01:58:46.466Z,3.24
2023-03-02T01:59:48.057Z,3.20
2023-03-02T02:00:49.680Z,3.15
2023-03-02T02:01:55.742Z,3.03
2023-03-02T02:03:08.764Z,3.03
2023-03-02T02:04:10.457Z,2.99
2023-03-02T02:05:17.901Z,3.03
2023-03-02T02:06:26.554Z,3.03
2023-03-02T02:07:28.210Z,3.11
2023-03-02T02:08:29.828Z,3.12
2023-03-02T02:09:34.841Z,3.18
2023-03-02T02:10:36.534Z,3.15
2023-03-02T02:11:38.198Z,3.09
2023-03-02T02:12:39.836Z,2.95
2023-03-02T02:13:41.574Z,2.91
2023-03-02T02:14:43.260Z,2.98
2023-03-02T02:15:44.912Z,2.89
2023-03-02T02:16:46.541Z,2.96
2023-03-02T02:17:48.358Z,3.01
2023-03-02T02:18:49.966Z,3.01
2023-03-02T02:20:00.575Z,2.99
2023-03-02T02:21:02.257Z,3.01
2023-03-02T02:22:03.906Z,2.98
2023-03-02T02:23:23.725Z,3.01
2023-03-02T02:24:33.900Z,2.98
2023-03-02T02:25:53.783Z,2.99
2023-03-02T02:26:55.632Z,2.96
2023-03-02T02:27:57.265Z,2.92
2023-03-02T02:29:01.087Z,2.93
2023-03-02T02:30:03.697Z,2.88
2023-03-02T02:31:17.075Z,2.88
2023-03-02T02:32:30.730Z,2.91
2023-03-02T02:33:32.522Z,2.93
2023-03-02T02:34:37.997Z,2.93
2023-03-02T02:35:39.646Z,2.96
2023-03-02T02:36:43.674Z,2.98
2023-03-02T02:37:53.891Z,3.01
2023-03-02T02:38:55.935Z,3.03
2023-03-02T02:39:57.596Z,3.06
2023-03-02T02:41:00.216Z,3.02
2023-03-02T02:42:04.378Z,3.05
2023-03-02T02:43:06.021Z,3.08
2023-03-02T02:44:11.858Z,2.99
2023-03-02T02:45:31.666Z,3.06
2023-03-02T02:46:33.799Z,3.06
2023-03-02T02:47:35.769Z,3.11
2023-03-02T02:48:37.452Z,3.09
2023-03-02T02:49:39.463Z,3.08
2023-03-02T02:50:41.066Z,3.06
2023-03-02T02:51:42.655Z,3.01
2023-03-02T02:52:44.294Z,2.96
2023-03-02T02:54:03.861Z,2.98
2023-03-02T02:55:05.822Z,2.98
2023-03-02T02:56:07.765Z,2.95
2023-03-02T02:57:09.655Z,2.98
2023-03-02T02:58:20.686Z,3.06
2023-03-02T02:59:24.707Z,3.12
2023-03-02T03:00:26.335Z,3.20
2023-03-02T03:01:28.050Z,3.23
2023-03-02T03:02:31.031Z,3.29
2023-03-02T03:03:37.457Z,3.27
2023-03-02T03:04:39.204Z,3.33
2023-03-02T03:05:40.815Z,3.37
2023-03-02T03:06:50.681Z,3.34
2023-03-02T03:07:53.333Z,3.37
2023-03-02T03:08:57.462Z,3.42
2023-03-02T03:10:04.420Z,3.47
2023-03-02T03:11:06.048Z,3.50
2023-03-02T03:12:20.580Z,3.47
2023-03-02T03:13:22.194Z,3.49
2023-03-02T03:14:50.137Z,3.50
2023-03-02T03:15:51.728Z,3.54
2023-03-02T03:16:53.588Z,3.54
2023-03-02T03:17:58.964Z,3.50
2023-03-02T03:19:10.645Z,3.43
2023-03-02T03:20:12.539Z,3.44
2023-03-02T03:21:14.174Z,3.49
2023-03-02T03:22:16.263Z,3.43
2023-03-02T03:23:17.936Z,3.43
2023-03-02T03:24:19.663Z,3.46
2023-03-02T03:25:22.246Z,3.43
2023-03-02T03:26:23.834Z,3.43
2023-03-02T03:27:25.464Z,3.40
2023-03-02T03:28:27.862Z,3.46
2023-03-02T03:29:29.621Z,3.47
2023-03-02T03:30:31.236Z,3.53
2023-03-02T03:31:33.015Z,3.57
2023-03-02T03:32:35.497Z,3.39
2023-03-02T03:33:37.080Z,3.39
2023-03-02T03:34:40.889Z,3.33
2023-03-02T03:35:42.767Z,3.30
2023-03-02T03:36:44.502Z,3.24
2023-03-02T03:37:46.088Z,3.22
2023-03-02T03:38:48.771Z,3.27
2023-03-02T03:39:50.377Z,3.36
2023-03-02T03:40:51.992Z,3.36
2023-03-02T03:41:53.578Z,3.34
2023-03-02T03:42:55.233Z,3.30
2023-03-02T03:43:56.857Z,3.29
2023-03-02T03:44:58.480Z,3.23
2023-03-02T03:46:00.119Z,3.26
2023-03-02T03:47:01.853Z,3.29
2023-03-02T03:48:03.562Z,3.22
2023-03-02T03:49:05.392Z,3.18
2023-03-02T03:50:07.197Z,3.02
2023-03-02T03:51:08.798Z,3.01
2023-03-02T03:52:10.387Z,3.02
2023-03-02T03:53:12.057Z,3.03
2023-03-02T03:54:13.635Z,2.95
2023-03-02T03:55:15.263Z,2.87
2023-03-02T03:56:17.086Z,2.71
2023-03-02T03:57:18.718Z,2.65
2023-03-02T03:58:20.399Z,2.64
2023-03-02T03:59:23.168Z,2.57
2023-03-02T04:00:25.057Z,2.57
2023-03-02T04:01:33.572Z,2.52
2023-03-02T04:02:35.214Z,2.52
2023-03-02T04:03:36.791Z,2.50
2023-03-02T04:04:38.386Z,2.45
2023-03-02T04:05:40.057Z,2.34
2023-03-02T04:06:41.719Z,2.33
2023-03-02T04:07:43.391Z,2.16
2023-03-02T04:08:45.020Z,2.13
2023-03-02T04:09:46.702Z,2.09
2023-03-02T04:10:48.363Z,2.00
2023-03-02T04:11:52.367Z,2.00
2023-03-02T04:12:54.035Z,2.02
2023-03-02T04:13:55.645Z,2.05
2023-03-02T04:14:57.316Z,2.07
2023-03-02T04:15:58.918Z,2.06
2023-03-02T04:17:00.546Z,2.09
2023-03-02T04:18:02.656Z,2.07
2023-03-02T04:19:10.830Z,2.06
2023-03-02T04:20:16.706Z,2.09
2023-03-02T04:21:18.794Z,2.06
2023-03-02T04:22:20.452Z,2.09
2023-03-02T04:23:22.090Z,2.07
2023-03-02T04:24:23.957Z,1.90
2023-03-02T04:25:26.648Z,1.96
2023-03-02T04:26:28.309Z,1.96
2023-03-02T04:27:30.022Z,1.93
2023-03-02T04:28:32.397Z,1.90
2023-03-02T04:29:34.278Z,1.87
2023-03-02T04:30:35.897Z,1.77
2023-03-02T04:31:37.579Z,1.70
2023-03-02T04:32:39.236Z,1.65
2023-03-02T04:33:40.843Z,1.58
2023-03-02T04:34:42.501Z,1.44
2023-03-02T04:35:44.151Z,1.45
2023-03-02T04:36:45.836Z,1.36
2023-03-02T04:37:47.475Z,1.41
2023-03-02T04:38:49.354Z,1.32
2023-03-02T04:39:52.803Z,1.44
2023-03-02T04:40:54.385Z,1.46
2023-03-02T04:41:55.965Z,1.52
2023-03-02T04:42:57.571Z,1.55
2023-03-02T04:43:59.258Z,1.58
2023-03-02T04:45:00.900Z,1.58
2023-03-02T04:46:02.607Z,1.56
2023-03-02T04:47:04.246Z,1.67
2023-03-02T04:48:06.353Z,1.69
2023-03-02T04:49:08.042Z,1.82
2023-03-02T04:50:10.648Z,1.87
2023-03-02T04:51:29.805Z,1.93
2023-03-02T04:52:31.513Z,1.99
2023-03-02T04:53:33.092Z,1.92
2023-03-02T04:54:34.765Z,1.93
2023-03-02T04:55:36.397Z,2.05
2023-03-02T04:56:38.171Z,2.11
2023-03-02T04:57:39.884Z,2.14
2023-03-02T04:58:41.467Z,2.13
2023-03-02T04:59:43.106Z,2.09
2023-03-02T05:00:44.745Z,2.14
2023-03-02T05:01:46.701Z,2.20
2023-03-02T05:02:48.336Z,2.27
2023-03-02T05:03:50.071Z,2.30
2023-03-02T05:04:51.738Z,2.28
2023-03-02T05:05:53.359Z,2.34
2023-03-02T05:06:55.139Z,2.42
2023-03-02T05:07:58.546Z,2.28
2023-03-02T05:09:00.630Z,2.24
2023-03-02T05:10:02.306Z,2.26
2023-03-02T05:11:04.518Z,2.31
2023-03-02T05:12:06.661Z,2.23
2023-03-02T05:13:08.263Z,2.26
2023-03-02T05:14:11.100Z,2.30
2023-03-02T05:15:12.741Z,2.23
2023-03-02T05:16:14.423Z,2.31
2023-03-02T05:17:16.050Z,2.24
2023-03-02T05:18:17.801Z,2.23
2023-03-02T05:19:19.487Z,2.27
2023-03-02T05:20:21.415Z,2.36
2023-03-02T05:21:23.067Z,2.33
2023-03-02T05:22:24.661Z,2.41
2023-03-02T05:23:27.596Z,2.47
2023-03-02T05:24:29.282Z,2.57
2023-03-02T05:25:31.836Z,2.61
2023-03-02T05:26:33.776Z,2.59
2023-03-02T05:27:36.858Z,2.57
2023-03-02T05:28:38.533Z,2.51
2023-03-02T05:29:40.174Z,2.52
2023-03-02T05:30:42.119Z,2.48
2023-03-02T05:31:44.568Z,2.58
2023-03-02T05:32:46.271Z,2.50
2023-03-02T05:33:47.927Z,2.57
2023-03-02T05:34:49.532Z,2.52
2023-03-02T05:35:51.159Z,2.57
2023-03-02T05:36:52.832Z,2.45
2023-03-02T05:37:54.439Z,2.51
2023-03-02T05:38:56.070Z,2.57
2023-03-02T05:39:57.693Z,2.57
2023-03-02T05:40:59.336Z,2.64
2023-03-02T05:42:00.992Z,2.72
2023-03-02T05:43:02.605Z,2.69
2023-03-02T05:44:05.088Z,2.77
2023-03-02T05:45:07.343Z,2.82
2023-03-02T05:46:09.113Z,2.82
2023-03-02T05:47:10.796Z,2.57
2023-03-02T05:48:13.129Z,2.64
2023-03-02T05:49:14.738Z,2.74
2023-03-02T05:50:16.561Z,2.82
2023-03-02T05:51:18.171Z,2.89
2023-03-02T05:52:19.984Z,2.95
2023-03-02T05:53:21.605Z,2.96
2023-03-02T05:54:23.223Z,3.01
2023-03-02T05:55:24.863Z,3.11
2023-03-02T05:56:26.776Z,3.16
2023-03-02T05:57:28.422Z,3.16
2023-03-02T05:58:30.005Z,3.22
2023-03-02T05:59:31.622Z,3.15
2023-03-02T06:00:33.241Z,3.24
2023-03-02T06:01:36.949Z,3.34
2023-03-02T06:02:39.363Z,3.30
2023-03-02T06:03:41.073Z,3.27
2023-03-02T06:04:44.424Z,3.27
2023-03-02T06:05:51.051Z,3.22
2023-03-02T06:06:52.829Z,3.33
2023-03-02T06:07:54.889Z,3.50
2023-03-02T06:08:56.515Z,3.66
2023-03-02T06:09:58.127Z,3.78
2023-03-02T06:10:59.956Z,3.84
2023-03-02T06:12:01.605Z,3.91
2023-03-02T06:13:03.314Z,3.85
2023-03-02T06:14:04.913Z,3.80
2023-03-02T06:15:07.301Z,3.88
2023-03-02T06:16:09.133Z,3.84
2023-03-02T06:17:10.817Z,3.85
2023-03-02T06:18:12.751Z,3.99
2023-03-02T06:19:14.367Z,4.05
2023-03-02T06:20:16.040Z,4.02
2023-03-02T06:21:17.678Z,4.05
2023-03-02T06:22:19.294Z,4.21
2023-03-02T06:23:20.956Z,4.26
2023-03-02T06:24:22.628Z,4.22
2023-03-02T06:25:24.725Z,4.24
2023-03-02T06:26:26.400Z,4.12
2023-03-02T06:27:28.017Z,4.35
2023-03-02T06:28:29.618Z,4.59
2023-03-02T06:29:31.280Z,4.67
2023-03-02T06:30:32.942Z,4.80
2023-03-02T06:31:34.800Z,4.80
2023-03-02T06:32:36.617Z,4.91
2023-03-02T06:33:38.276Z,4.90
2023-03-02T06:34:39.918Z,4.97
2023-03-02T06:35:42.488Z,5.04
2023-03-02T06:36:44.274Z,5.09
2023-03-02T06:37:45.935Z,4.94
2023-03-02T06:38:47.534Z,5.09
2023-03-02T06:39:49.112Z,5.01
2023-03-02T06:40:50.744Z,5.03
2023-03-02T06:41:52.493Z,5.10
2023-03-02T06:42:54.207Z,5.17
2023-03-02T06:43:55.844Z,5.32
2023-03-02T06:44:57.532Z,5.38
2023-03-02T06:46:00.830Z,5.55
2023-03-02T06:47:02.502Z,5.58
2023-03-02T06:48:04.525Z,5.56
2023-03-02T06:49:06.555Z,5.65
2023-03-02T06:50:08.803Z,5.52
2023-03-02T06:51:10.448Z,5.55
2023-03-02T06:52:13.661Z,5.62
2023-03-02T06:53:17.734Z,5.73
2023-03-02T06:54:19.342Z,5.72
2023-03-02T06:55:21.074Z,5.79
2023-03-02T06:56:22.874Z,5.82
2023-03-02T06:57:24.498Z,5.89
2023-03-02T06:58:26.319Z,5.98
2023-03-02T06:59:27.980Z,6.06
2023-03-02T07:00:29.569Z,6.14
2023-03-02T07:01:35.745Z,6.16
2023-03-02T07:02:37.568Z,6.06
2023-03-02T07:03:39.298Z,6.17
2023-03-02T07:04:41.000Z,6.24
2023-03-02T07:05:44.568Z,6.30
2023-03-02T07:06:48.046Z,6.27
2023-03-02T07:07:49.709Z,6.38
2023-03-02T07:08:51.361Z,6.27
2023-03-02T07:09:53.037Z,6.37
2023-03-02T07:10:54.659Z,6.43
2023-03-02T07:11:56.806Z,6.47
2023-03-02T07:12:58.409Z,6.38
2023-03-02T07:14:00.830Z,6.41
2023-03-02T07:15:02.513Z,6.38
2023-03-02T07:16:11.283Z,6.40
2023-03-02T07:17:12.974Z,6.40
2023-03-02T07:18:14.597Z,6.57
2023-03-02T07:19:16.496Z,6.68
2023-03-02T07:20:18.417Z,6.77
2023-03-02T07:21:20.055Z,6.78
2023-03-02T07:22:21.849Z,6.87
2023-03-02T07:23:24.909Z,6.95
2023-03-02T07:24:26.504Z,7.04
2023-03-02T07:25:28.225Z,7.08
2023-03-02T07:26:29.888Z,7.12
2023-03-02T07:27:31.542Z,7.12
2023-03-02T07:28:33.177Z,7.04
2023-03-02T07:29:34.869Z,7.09
2023-03-02T07:30:36.505Z,7.16
2023-03-02T07:31:38.122Z,7.19
2023-03-02T07:32:39.867Z,7.22
2023-03-02T07:33:41.605Z,7.09
2023-03-02T07:34:43.256Z,7.09
2023-03-02T07:35:44.881Z,7.22
2023-03-02T07:36:46.508Z,7.29
2023-03-02T07:37:48.188Z,7.36
2023-03-02T07:38:49.798Z,7.45
2023-03-02T07:39:51.490Z,7.49
2023-03-02T07:40:53.123Z,7.55
2023-03-02T07:42:00.791Z,7.52
2023-03-02T07:43:02.423Z,7.59
2023-03-02T07:44:04.170Z,7.62
2023-03-02T07:45:06.483Z,7.63
2023-03-02T07:46:08.152Z,7.67
2023-03-02T07:47:09.889Z,7.69
2023-03-02T07:48:11.501Z,7.67
2023-03-02T07:49:13.159Z,7.60
2023-03-02T07:50:14.932Z,7.60
2023-03-02T07:51:16.562Z,7.60
2023-03-02T07:52:18.186Z,7.62
2023-03-02T07:53:19.783Z,7.66
2023-03-02T07:54:21.466Z,7.67
2023-03-02T07:55:23.248Z,7.63
2023-03-02T07:56:25.129Z,7.65
2023-03-02T07:57:26.801Z,7.67
2023-03-02T07:58:28.501Z,7.65
2023-03-02T07:59:30.207Z,7.70
2023-03-02T08:00:31.826Z,7.71
2023-03-02T08:01:33.786Z,7.69
2023-03-02T08:02:35.739Z,7.70
2023-03-02T08:03:37.554Z,7.71
2023-03-02T08:04:39.169Z,7.74
2023-03-02T08:05:40.858Z,7.81
2023-03-02T08:06:42.680Z,7.87
2023-03-02T08:07:46.479Z,7.91
2023-03-02T08:08:48.257Z,7.97
2023-03-02T08:09:50.035Z,7.95
2023-03-02T08:10:51.635Z,7.97
2023-03-02T08:11:53.404Z,7.91
2023-03-02T08:12:55.042Z,7.84
2023-03-02T08:14:00.390Z,7.83
2023-03-02T08:15:03.740Z,7.87
2023-03-02T08:16:07.402Z,7.91
2023-03-02T08:17:09.104Z,7.94
2023-03-02T08:18:10.693Z,8.01
2023-03-02T08:19:12.418Z,8.10
2023-03-02T08:20:14.237Z,8.14
2023-03-02T08:21:17.971Z,8.12
2023-03-02T08:22:19.603Z,8.15
2023-03-02T08:23:21.382Z,8.12
2023-03-02T08:24:23.012Z,8.21
2023-03-02T08:25:24.784Z,8.24
2023-03-02T08:26:26.498Z,8.22
2023-03-02T08:27:28.129Z,8.27
2023-03-02T08:28:29.816Z,8.28
2023-03-02T08:29:31.469Z,8.28
2023-03-02T08:30:33.125Z,8.32
2023-03-02T08:31:35.251Z,8.34
2023-03-02T08:32:37.138Z,8.38
2023-03-02T08:33:38.888Z,8.40
2023-03-02T08:34:40.706Z,8.41
2023-03-02T08:35:42.349Z,8.42
2023-03-02T08:36:44.665Z,8.41
2023-03-02T08:37:46.218Z,8.42
2023-03-02T08:38:48.517Z,8.37
2023-03-02T08:39:50.508Z,8.38
2023-03-02T08:40:52.676Z,8.38
2023-03-02T08:41:54.349Z,8.38
2023-03-02T08:42:57.500Z,8.34
2023-03-02T08:43:59.359Z,8.32
2023-03-02T08:45:01.012Z,8.32
2023-03-02T08:46:02.700Z,8.37
2023-03-02T08:47:04.460Z,8.35
2023-03-02T08:48:06.286Z,8.42
2023-03-02T08:49:07.933Z,8.48
2023-03-02T08:50:10.308Z,8.49
2023-03-02T08:51:13.964Z,8.51
2023-03-02T08:52:15.673Z,8.49
2023-03-02T08:53:17.273Z,8.48
2023-03-02T08:54:19.274Z,8.49
2023-03-02T08:55:21.148Z,8.49
2023-03-02T08:56:24.804Z,8.49
2023-03-02T08:57:26.484Z,8.52
2023-03-02T08:58:29.808Z,8.59
2023-03-02T08:59:31.430Z,8.61
2023-03-02T09:00:33.166Z,8.59
2023-03-02T09:01:36.164Z,8.61
2023-03-02T09:02:38.314Z,8.58
2023-03-02T09:03:39.918Z,8.56
2023-03-02T09:04:41.767Z,8.58
2023-03-02T09:05:43.863Z,8.58
2023-03-02T09:06:45.556Z,8.52
2023-03-02T09:07:47.215Z,8.62
2023-03-02T09:08:48.907Z,8.63
2023-03-02T09:09:50.558Z,8.61
2023-03-02T09:10:53.091Z,8.65
2023-03-02T09:11:54.863Z,8.66
2023-03-02T09:12:56.455Z,8.71
2023-03-02T09:13:58.099Z,8.72
2023-03-02T09:14:59.717Z,8.72
2023-03-02T09:16:02.027Z,8.71
2023-03-02T09:17:04.171Z,8.72
2023-03-02T09:18:05.831Z,8.73
2023-03-02T09:19:07.436Z,8.73
2023-03-02T09:20:09.960Z,8.79
2023-03-02T09:21:11.593Z,8.75
2023-03-02T09:22:13.245Z,8.77
2023-03-02T09:23:14.837Z,8.76
2023-03-02T09:24:16.515Z,8.72
2023-03-02T09:25:18.764Z,8.73
2023-03-02T09:26:20.711Z,8.71
2023-03-02T09:27:22.334Z,8.73
2023-03-02T09:28:24.148Z,8.76
2023-03-02T09:29:25.971Z,8.76
2023-03-02T09:30:27.691Z,8.76
2023-03-02T09:31:30.440Z,8.80
2023-03-02T09:32:32.378Z,8.83
2023-03-02T09:33:34.660Z,8.92
2023-03-02T09:34:36.338Z,9.00
2023-03-02T09:35:38.711Z,9.07
2023-03-02T09:36:40.412Z,9.14
2023-03-02T09:37:44.272Z,9.20
2023-03-02T09:38:46.147Z,9.22
2023-03-02T09:39:48.056Z,9.23
2023-03-02T09:40:49.898Z,9.22
2023-03-02T09:42:00.943Z,9.20
2023-03-02T09:43:23.836Z,9.27
2023-03-02T09:45:21.700Z,9.38
2023-03-02T09:46:26.287Z,9.44
2023-03-02T09:47:35.470Z,9.43
2023-03-02T09:49:02.056Z,9.41
2023-03-02T09:50:22.693Z,9.44
2023-03-02T09:51:34.696Z,9.46
2023-03-02T09:53:11.847Z,9.48
2023-03-02T09:54:25.225Z,9.50
2023-03-02T09:55:28.559Z,9.47
2023-03-02T09:56:30.461Z,9.50
2023-03-02T09:57:33.975Z,9.48
2023-03-02T09:58:36.364Z,9.48
2023-03-02T09:59:45.345Z,9.51
2023-03-02T10:00:47.221Z,9.51
2023-03-02T10:02:16.754Z,9.61
2023-03-02T10:03:23.433Z,9.73
2023-03-02T10:04:30.375Z,9.74
2023-03-02T10:05:55.440Z,9.68
2023-03-02T10:06:59.712Z,9.68
2023-03-02T10:08:01.294Z,9.70
2023-03-02T10:09:03.074Z,9.74
2023-03-02T10:10:25.940Z,9.71
2023-03-02T10:11:36.213Z,9.74
2023-03-02T10:13:00.069Z,9.75
2023-03-02T10:14:13.586Z,9.68
2023-03-02T10:15:36.220Z,9.78
2023-03-02T10:16:39.068Z,9.84
2023-03-02T10:17:52.944Z,9.91
2023-03-02T10:19:05.404Z,9.97
2023-03-02T10:20:34.250Z,9.97
2023-03-02T10:21:44.238Z,9.94
2023-03-02T10:22:52.561Z,9.94
2023-03-02T10:23:59.800Z,9.99
2023-03-02T10:25:16.608Z,10.01
2023-03-02T10:26:35.481Z,9.99
2023-03-02T10:27:39.937Z,9.97
2023-03-02T10:28:49.582Z,10.01
2023-03-02T10:29:59.310Z,10.12
2023-03-02T10:31:12.564Z,10.16
2023-03-02T10:32:19.492Z,10.18
2023-03-02T10:33:21.365Z,10.25
2023-03-02T10:34:24.660Z,10.33
2023-03-02T10:35:26.921Z,10.33
2023-03-02T10:36:37.855Z,10.39
2023-03-02T10:37:39.744Z,10.43
2023-03-02T10:38:41.473Z,10.50
2023-03-02T10:39:43.085Z,10.52
2023-03-02T10:40:49.455Z,10.52
2023-03-02T10:42:05.149Z,10.50
2023-03-02T10:43:17.220Z,10.43
2023-03-02T10:44:21.636Z,10.49
2023-03-02T10:45:31.253Z,10.50
2023-03-02T10:46:43.104Z,10.57
2023-03-02T10:47:44.854Z,10.57
2023-03-02T10:48:51.873Z,10.57
2023-03-02T10:49:54.344Z,10.56
2023-03-02T10:50:57.178Z,10.52
2023-03-02T10:52:08.539Z,10.48
2023-03-02T10:53:17.651Z,10.59
2023-03-02T10:54:19.316Z,10.60
2023-03-02T10:55:20.977Z,10.49
2023-03-02T10:56:22.854Z,10.57
2023-03-02T10:57:27.283Z,10.59
2023-03-02T10:58:33.027Z,10.63
2023-03-02T10:59:43.613Z,10.56
2023-03-02T11:00:55.881Z,10.52
2023-03-02T11:02:01.094Z,10.61
2023-03-02T11:03:04.677Z,10.64
2023-03-02T11:04:13.480Z,10.63
2023-03-02T11:05:17.767Z,10.64
2023-03-02T11:06:20.287Z,10.66
2023-03-02T11:07:23.577Z,10.70
2023-03-02T11:08:27.178Z,10.73
2023-03-02T11:09:28.875Z,10.77
2023-03-02T11:10:38.245Z,10.81
2023-03-02T11:11:39.930Z,10.85
2023-03-02T11:12:46.002Z,10.89
2023-03-02T11:13:47.691Z,10.87
2023-03-02T11:14:49.273Z,10.87
2023-03-02T11:15:51.990Z,10.85
2023-03-02T11:16:53.772Z,10.87
2023-03-02T11:18:00.112Z,10.89
2023-03-02T11:19:25.880Z,10.91
2023-03-02T11:20:34.397Z,10.90
2023-03-02T11:21:47.572Z,10.87
2023-03-02T11:23:12.009Z,10.81
2023-03-02T11:24:30.218Z,10.85
2023-03-02T11:25:35.718Z,10.89
2023-03-02T11:26:43.033Z,10.83
2023-03-02T11:27:44.702Z,10.87
2023-03-02T11:28:51.964Z,10.87
2023-03-02T11:29:57.298Z,10.89
2023-03-02T11:30:59.117Z,10.96
2023-03-02T11:32:09.334Z,10.96
2023-03-02T11:33:20.808Z,10.93
2023-03-02T11:34:49.135Z,10.91
2023-03-02T11:35:58.825Z,10.91
2023-03-02T11:37:04.974Z,10.99
2023-03-02T11:38:46.804Z,11.07
2023-03-02T11:39:55.845Z,11.11
2023-03-02T11:41:00.295Z,11.20
2023-03-02T11:42:01.908Z,11.24
2023-03-02T11:43:06.395Z,11.25
2023-03-02T11:44:14.320Z,11.24
2023-03-02T11:45:23.809Z,11.17
2023-03-02T11:46:27.874Z,11.20
2023-03-02T11:47:31.484Z,11.22
2023-03-02T11:48:33.952Z,11.21
2023-03-02T11:49:38.548Z,11.20
2023-03-02T11:50:46.206Z,11.17
2023-03-02T11:51:58.868Z,11.22
2023-03-02T11:53:03.774Z,11.27
2023-03-02T11:54:24.599Z,11.30
2023-03-02T11:55:30.229Z,11.34
2023-03-02T11:56:35.212Z,11.31
2023-03-02T11:57:45.470Z,11.30
2023-03-02T11:58:48.888Z,11.27
2023-03-02T11:59:50.536Z,11.17
2023-03-02T12:00:52.370Z,11.25
2023-03-02T12:01:54.028Z,11.24
2023-03-02T12:03:05.402Z,11.24
2023-03-02T12:04:32.380Z,11.28
2023-03-02T12:05:36.497Z,11.32
2023-03-02T12:06:39.970Z,11.35
2023-03-02T12:07:41.632Z,11.45
2023-03-02T12:08:45.075Z,11.46
2023-03-02T12:10:06.054Z,11.46
2023-03-02T12:11:16.896Z,11.48
2023-03-02T12:12:44.244Z,11.41
2023-03-02T12:13:57.938Z,11.46
2023-03-02T12:14:59.638Z,11.54
2023-03-02T12:16:01.566Z,11.48
2023-03-02T12:17:18.833Z,11.51
2023-03-02T12:18:23.040Z,11.58
2023-03-02T12:19:29.556Z,11.59
2023-03-02T12:20:31.170Z,11.61
2023-03-02T12:21:39.503Z,11.62
2023-03-02T12:22:42.308Z,11.68
2023-03-02T12:23:43.867Z,11.72
2023-03-02T12:24:45.493Z,11.75
2023-03-02T12:25:51.383Z,11.78
2023-03-02T12:27:08.250Z,11.82
2023-03-02T12:28:26.238Z,11.81
2023-03-02T12:29:39.990Z,11.75
2023-03-02T12:30:41.644Z,11.72
2023-03-02T12:31:47.026Z,11.72
2023-03-02T12:33:04.321Z,11.73
2023-03-02T12:34:20.856Z,11.78
2023-03-02T12:35:23.335Z,11.78
2023-03-02T12:36:27.352Z,11.76
2023-03-02T12:37:57.328Z,11.75
2023-03-02T12:39:05.258Z,11.72
2023-03-02T12:40:31.354Z,11.72
2023-03-02T12:41:57.618Z,11.73
2023-03-02T12:43:17.560Z,11.76
2023-03-02T12:44:31.392Z,11.75
2023-03-02T12:45:43.425Z,11.82
2023-03-02T12:46:45.915Z,11.85
2023-03-02T12:47:49.590Z,11.85
2023-03-02T12:49:21.665Z,11.86
2023-03-02T12:50:27.631Z,11.85
2023-03-02T12:51:31.184Z,11.82
2023-03-02T12:52:34.378Z,11.79
2023-03-02T12:53:37.480Z,11.79
2023-03-02T12:54:39.142Z,11.82
2023-03-02T12:55:40.809Z,11.81
2023-03-02T12:56:42.758Z,11.79
2023-03-02T12:57:52.058Z,11.78
2023-03-02T12:58:54.078Z,11.76
2023-03-02T13:00:00.775Z,11.78
2023-03-02T13:01:03.001Z,11.81
2023-03-02T13:02:13.514Z,11.86
2023-03-02T13:03:15.195Z,11.92
2023-03-02T13:04:24.350Z,11.96
2023-03-02T13:05:30.879Z,12.05
2023-03-02T13:06:32.747Z,12.07
2023-03-02T13:07:35.636Z,12.15
2023-03-02T13:08:37.317Z,12.12
2023-03-02T13:09:47.734Z,12.09
2023-03-02T13:10:57.756Z,12.07
2023-03-02T13:11:59.397Z,12.06
2023-03-02T13:13:01.070Z,12.05
2023-03-02T13:14:06.099Z,12.07
2023-03-02T13:15:14.143Z,12.05
2023-03-02T13:16:25.434Z,12.02
2023-03-02T13:17:32.528Z,12.00
2023-03-02T13:18:35.605Z,11.99
2023-03-02T13:19:37.521Z,11.96
2023-03-02T13:20:39.235Z,11.99
2023-03-02T13:21:40.982Z,11.97
2023-03-02T13:22:42.789Z,12.00
2023-03-02T13:23:48.860Z,12.00
2023-03-02T13:24:55.589Z,12.02
2023-03-02T13:26:05.492Z,12.02
2023-03-02T13:27:08.029Z,12.05
2023-03-02T13:28:25.321Z,12.06
2023-03-02T13:29:27.545Z,12.02
2023-03-02T13:30:32.564Z,11.93
2023-03-02T13:31:34.867Z,11.87
2023-03-02T13:32:39.426Z,11.89
2023-03-02T13:33:44.537Z,11.89
2023-03-02T13:34:56.742Z,11.89
2023-03-02T13:35:58.480Z,11.90
2023-03-02T13:37:00.119Z,11.93
2023-03-02T13:38:04.656Z,11.96
2023-03-02T13:39:07.671Z,12.02
2023-03-02T13:40:27.437Z,12.03
2023-03-02T13:41:33.842Z,12.03
2023-03-02T13:42:40.425Z,12.06
2023-03-02T13:43:42.051Z,12.09
2023-03-02T13:44:43.671Z,12.09
2023-03-02T13:45:55.235Z,12.10
2023-03-02T13:46:57.062Z,12.16
2023-03-02T13:48:00.764Z,12.20
2023-03-02T13:49:10.787Z,12.22
2023-03-02T13:50:24.077Z,12.22
2023-03-02T13:51:26.010Z,12.20
2023-03-02T13:52:29.576Z,12.13
2023-03-02T13:53:31.879Z,12.15
2023-03-02T13:54:35.230Z,12.15
2023-03-02T13:55:36.885Z,12.13
2023-03-02T13:56:40.585Z,12.15
2023-03-02T13:57:42.175Z,12.19
2023-03-02T13:58:43.796Z,12.19
2023-03-02T13:59:45.410Z,12.22
2023-03-02T14:00:47.088Z,12.26
2023-03-02T14:01:48.910Z,12.26
2023-03-02T14:02:50.616Z,12.25
2023-03-02T14:03:52.282Z,12.27
2023-03-02T14:04:54.101Z,12.27
2023-03-02T14:05:56.334Z,12.23
2023-03-02T14:06:57.985Z,12.23